x

Los Angeles Pier F, Ca - 9410670 (pfxc1) Weather Station

10:54 - Fri 30th Sep 2016 All times are PDT. -7 hours from GMT.

  • Wind
    7mph, 8mph gusts
  • Aire Temp 72°f
  • Sea Pressure 1016.4mb
  • Los Angeles Pier F, Ca - 9410670
  • Los Angeles Pier F, Ca - 9410670

More Historic Weather Station data

Upgrade to MSW Pro to gain access to the past 30 days of data for over 8000 Wavebouys and Weather Stations around the globe.

Join Pro

Comparision Forecast

View Surf forecast
   
vie 09/30 10:54 7 8 mph 1016.4mb 72f
10:48 7 8 mph 1016.5mb 72f
10:42 7
mph
1016.6mb 71f
10:36 7
mph
1016.5mb 71f
10:30 6 7 mph 1016.6mb 72f
10:24 6 7 mph 1016.6mb 71f
10:18 5 6 mph 1016.6mb 71f
10:12 5 6 mph 1016.4mb 71f
10:06 5
mph
1016.4mb 71f
10:00 3 5 mph 1016.5mb 72f
9:54 3 5 mph 1016.6mb 72f
9:48 5
mph
1016.5mb 71f
9:42 3 5 mph 1016.5mb 70f
9:36 3
mph
1016.4mb 70f
9:30 3
mph
1016.4mb 70f
9:24 3
mph
1016.4mb 70f
9:18 3
mph
1016.3mb 71f
9:12 2 3 mph 1016.4mb 72f
9:06 2
mph
1016.4mb 71f
9:00 2
mph
1016.4mb 71f
8:54 2
mph
1016.4mb 71f
8:48 2
mph
1016.4mb 70f
8:42 2
mph
1016.4mb 70f
8:36 2
mph
1016.3mb 69f
8:30 2
mph
1016.4mb 70f
8:24 2
mph
1016.4mb 71f
8:18  -  1 mph 1016.4mb 71f
8:12 1 2 mph 1016.4mb 72f
8:06 2 3 mph 1016.4mb 71f
8:00 2
mph
1016.4mb 71f
7:54 1 2 mph 1016.3mb 70f
7:48  -  1 mph 1016.3mb 70f
7:42  -  1 mph 1016.2mb 69f
7:36  -  1 mph 1016.3mb 70f
7:30  -  mph 1016.2mb 70f
7:24  -  mph 1016.1mb 69f
7:18  -  mph 1016.1mb 68f
7:12  -  1 mph 1016.1mb 68f
7:06  -  mph 1016mb 67f
7:00  -  mph 1015.9mb 67f
6:54  -  1 mph 1015.9mb 67f
6:48 1
mph
1015.9mb 67f
6:42 2
mph
1015.9mb 67f
6:36 2
mph
1015.9mb 67f
6:30 2
mph
1015.8mb 67f
6:24 1 2 mph 1015.7mb 67f
6:18 2
mph
1015.7mb 67f
6:12  -  mph 1015.7mb 67f
6:06  -  mph 1015.7mb 67f
5:54  -  1 mph 1015.7mb 67f
5:48 1 2 mph 1015.6mb 67f
5:42 1 2 mph 1015.7mb 68f
5:36 2
mph
1015.7mb 67f
5:30 2
mph
1015.7mb 67f
5:24 2
mph
1015.7mb 67f
5:18 2
mph
1015.6mb 67f
5:12 1 2 mph 1015.6mb 67f
5:06 1
mph
1015.6mb 68f
5:00  -  1 mph 1015.6mb 67f
4:54 1 2 mph 1015.6mb 67f
4:48 1 2 mph 1015.6mb 67f
4:42  -  1 mph 1015.6mb 67f
4:36  -  1 mph 1015.6mb 67f
4:30  -  mph 1015.7mb 67f
4:24  -  1 mph 1015.6mb 67f
4:18  -  2 mph 1015.6mb 67f
4:12  -  1 mph 1015.6mb 68f
4:06  -  1 mph 1015.6mb 68f
4:00  -  1 mph 1015.6mb 68f
3:54  -  1 mph 1015.5mb 68f
3:48  -  1 mph 1015.6mb 68f
3:42  -  1 mph 1015.6mb 68f
3:36 1 2 mph 1015.6mb 68f
3:30  -  2 mph 1015.6mb 68f
3:24  -  1 mph 1015.6mb 68f
3:18 1 2 mph 1015.6mb 68f
3:12 1 2 mph 1015.7mb 68f
3:06  -  1 mph 1015.7mb 68f
3:00  -  1 mph 1015.8mb 68f
2:54  -  1 mph 1015.8mb 69f
2:48  -  1 mph 1015.8mb 69f
2:42 1
mph
1015.8mb 69f
2:36  -  1 mph 1015.8mb 69f
2:30  -  1 mph 1015.9mb 69f
2:24  -  1 mph 1015.9mb 69f
2:18 2
mph
1016mb 69f
2:12 2
mph
1015.9mb 69f
2:06 2
mph
1015.9mb 68f
2:00 2
mph
1016mb 68f
1:54 2
mph
1016mb 68f
1:48 2 3 mph 1016mb 68f
1:42 2
mph
1015.9mb 68f
1:36 2 3 mph 1015.8mb 68f
1:30 2 3 mph 1015.8mb 68f
1:24 2 3 mph 1015.8mb 68f
1:18 1 2 mph 1015.9mb 68f
1:12 2 3 mph 1015.8mb 68f
1:06 2 3 mph 1015.8mb 68f
1:00 2
mph
1015.9mb 69f
12:54 2 3 mph 1015.9mb 70f
12:48 2 3 mph 1015.9mb 71f
12:42 2 5 mph 1016mb 72f
12:36 3 5 mph 1016.1mb 72f
12:30 5 6 mph 1016.1mb 72f
12:24 5 6 mph 1016.1mb 72f
12:18 5 6 mph 1016.1mb 72f
12:12 5
mph
1016.2mb 72f
12:06 5
mph
1016.2mb 72f
12:00 5 6 mph 1016.2mb 72f
jue 09/29 11:54 3 5 mph 1016.2mb 72f
11:48 3
mph
1016.2mb -
11:42 2 3 mph 1016.2mb -
11:36 1 3 mph 1016.1mb -
11:30 1 2 mph 1016.2mb 73f
11:24 1 2 mph 1016.2mb 73f
11:18 2 3 mph 1016.2mb 72f
11:12 2 3 mph 1016.2mb 72f
11:06 1 2 mph 1016.1mb 72f
11:00 1
mph
1016.1mb 71f
10:54  -  1 mph 1016.1mb 70f
10:48  -  1 mph 1016.1mb 69f
10:42  -  1 mph 1016.1mb 68f
10:36 2 3 mph 1016.1mb 69f
10:30 5 6 mph 1016mb 69f
10:24 5 6 mph 1016mb 69f
10:18 3 5 mph 1015.9mb 69f
10:12 2 5 mph 1015.9mb 69f
10:06 2 5 mph 1015.9mb 69f
10:00 2
mph
1015.9mb 69f
9:54 2 3 mph 1015.8mb 69f
9:48 3 5 mph 1015.8mb 69f
9:42 6 8 mph 1015.8mb 70f
9:36 7 8 mph 1015.8mb 70f
9:30 6 7 mph 1015.8mb 71f
9:24 3 6 mph 1015.8mb 72f
9:18 6 7 mph 1015.8mb 73f
9:12 6
mph
1015.8mb 72f
9:06 5 6 mph 1015.7mb 72f
9:00 5 7 mph 1015.8mb 73f
8:54 6 7 mph 1015.6mb 71f
8:48 6 7 mph 1015.5mb 72f
8:42 5 6 mph 1015.4mb 71f
8:36 3 5 mph 1015.3mb 71f
8:30 3 6 mph 1015.2mb 72f
8:24 5 6 mph 1015.1mb 74f
8:18 5 6 mph 1015.2mb 74f
8:12 5 6 mph 1015.1mb 74f
8:06 6
mph
1015mb 74f
8:00 3 6 mph 1014.8mb 73f
7:54 2
mph
1014.7mb 72f
7:48 2 3 mph 1014.7mb 72f
7:42 5 7 mph 1014.7mb 71f
7:36 6 8 mph 1014.6mb 72f
7:30 6 7 mph 1014.5mb 72f
7:24 7 8 mph 1014.5mb 72f
7:18 7 8 mph 1014.5mb 73f
7:12 8 9 mph 1014.4mb 72f
7:06 9 10 mph 1014.4mb 73f
7:00 7 8 mph 1014.4mb 74f
6:54 6 9 mph 1014.3mb 73f
6:48 3 6 mph 1014.2mb 73f
6:42 6 8 mph 1014.2mb 74f
6:36 5 6 mph 1014.2mb 74f
6:30 3
mph
1014.2mb 75f
6:24 5 7 mph 1014.2mb 75f
6:18 8 9 mph 1014.3mb 75f
6:12 8 9 mph 1014.3mb 76f
6:06 7 8 mph 1014.4mb 75f
6:00 8 9 mph 1014.4mb 76f
5:54 5 8 mph 1014.4mb 77f
5:48 6 7 mph 1014.3mb 76f
5:42 9 10 mph 1014.1mb 75f
5:36 8 10 mph 1014.1mb 77f
5:30 8
mph
1014.1mb 77f
5:24 7 9 mph 1013.9mb 76f
5:12 6 7 mph 1013.8mb 79f
5:06 6 7 mph 1013.8mb 79f
5:00 7 8 mph 1013.8mb 78f
4:54 3 6 mph 1013.8mb 80f
4:48 1 2 mph 1013.9mb -
4:42 2 5 mph 1013.8mb -
4:36 3 5 mph 1013.8mb -
4:30 2 5 mph 1013.8mb 83f
4:24 5 8 mph 1013.9mb 86f
4:18 8 9 mph 1013.8mb 87f
4:12 9 10 mph 1013.8mb 87f
4:06 10 13 mph 1013.7mb 87f
4:00 9 11 mph 1013.8mb 86f
3:54 10 14 mph 1013.7mb 86f
3:48 10 13 mph 1013.7mb -
3:42 10 13 mph 1013.8mb -
3:36 8 10 mph 1014mb -
3:30 8 10 mph 1014mb 86f
3:24 9 10 mph 1014mb 86f
3:18  -  mph 1014mb -
3:12  -  mph 1014.2mb -
3:06  -  mph 1014.4mb -
3:00 5 7 mph 1014.3mb 82f
2:54 6 8 mph 1014.2mb 86f
2:48 6 9 mph - 86f
2:42 7 10 mph - 83f
2:36 8 10 mph - 83f
2:30 5 7 mph 1014.2mb 82f
2:24 6 8 mph 1014.1mb 83f
2:18 7 8 mph 1014.2mb 86f
2:12 7 9 mph 1014.3mb 86f
2:06 6 7 mph 1014.4mb 86f
2:00 9 10 mph 1014.5mb 83f
1:54 10 11 mph 1014.4mb 82f
1:48 10 13 mph 1014.5mb 83f
1:42 8 11 mph 1014.6mb 83f
1:36 6 8 mph 1014.7mb 85f
1:30 8 10 mph 1014.7mb 85f
1:24 10 11 mph 1014.7mb 83f
1:18 10 13 mph 1014.7mb 83f
1:12 10 11 mph 1014.8mb 83f
1:06 9 11 mph 1015mb 82f
1:00 9 10 mph 1015.1mb 82f
12:54 8 9 mph 1015.2mb 81f
12:48 8 10 mph 1015.3mb 80f
12:42 10 11 mph 1015.3mb 79f
12:36 11 13 mph 1015.3mb 79f
12:30 11 13 mph 1015.4mb 79f
12:24 13 14 mph 1015.5mb 79f
12:18 14 15 mph 1015.6mb 79f
12:12 15 16 mph 1015.6mb 78f
12:06 16 17 mph 1015.7mb 78f
12:00 15 16 mph 1015.6mb 77f
11:54 14 16 mph 1015.6mb 77f
11:48 13 14 mph 1015.7mb 79f
11:42 11 14 mph 1015.8mb 79f
11:36 11 13 mph 1015.8mb 78f
11:30 10 11 mph 1015.9mb 78f
11:24 10 11 mph 1015.9mb 78f
11:18 11 13 mph 1016mb 77f
11:12 11 13 mph 1016mb 76f
11:06 10 13 mph 1016.1mb 76f
11:00 10 11 mph 1016.1mb 75f
10:54 11 13 mph 1016mb 73f
10:48 10
mph
1015.9mb 74f
10:42 10
mph
1016mb 75f
10:36 9 10 mph 1016mb 75f
10:30 10 11 mph 1016.1mb 74f
10:24 11 13 mph 1016.1mb 75f
10:18 11 13 mph 1016.1mb 74f
10:12 11 13 mph 1016mb 74f
10:06 11 13 mph 1016mb 75f
10:00 9 11 mph 1016.1mb 75f
9:54 8 9 mph 1015.8mb 73f
9:48 5 7 mph 1015.9mb 76f
9:42 3 5 mph 1015.7mb 74f
9:36 2
mph
1015.7mb 76f
9:30 2 3 mph 1015.8mb 78f
9:24 2 3 mph 1015.8mb 77f
9:18 2
mph
1015.6mb 77f
9:12 2
mph
1015.6mb 77f
9:06 1
mph
1015.6mb 77f
9:00 1 2 mph 1015.6mb 76f
8:54 2
mph
1015.6mb 76f
8:48 2
mph
1015.7mb 76f
8:42 2 3 mph 1015.7mb 75f
8:36 3
mph
1015.6mb 75f
8:30 2 3 mph 1015.6mb 74f
8:24 2 3 mph 1015.6mb 74f
8:18 2 3 mph 1015.6mb 74f
8:12 3
mph
1015.6mb 74f
8:06 2
mph
1015.6mb 73f
8:00 2
mph
1015.6mb 72f
7:54 3
mph
1015.5mb 71f
7:48 3
mph
1015.4mb 71f
7:42 2 3 mph 1015.5mb 70f
7:36 1 2 mph 1015.4mb 69f
7:30 1 2 mph 1015.4mb 69f
7:24 2
mph
1015.3mb 68f
7:18 2
mph
1015.1mb 68f
7:12 2 3 mph 1015.1mb 68f
7:06 1 3 mph 1015.1mb 68f
7:00  -  1 mph 1015.1mb 68f
6:54  -  1 mph 1015.1mb 67f
6:48  -  2 mph 1015mb 67f
6:42 1 2 mph 1014.9mb 67f
6:36  -  1 mph 1014.8mb 68f
6:30  -  1 mph 1014.9mb 69f
6:24  -  1 mph 1014.8mb 70f
6:18 2 6 mph 1014.8mb 71f
6:12 6 7 mph 1014.8mb 71f
6:06 2 3 mph 1014.7mb 71f
6:00 2 3 mph 1014.5mb 71f
5:54 3 5 mph 1014.3mb 70f
5:48 3 5 mph 1014.3mb 70f
5:36 2
mph
1014.3mb 69f
5:30 2
mph
1014.3mb 69f
5:24 2 3 mph 1014.3mb 68f
5:18 2 3 mph 1014.3mb 68f
5:12 2 3 mph 1014.2mb 68f
5:06 2
mph
1014.2mb 68f
5:00 2
mph
1014.1mb 68f
4:54 2 3 mph 1014.1mb 68f
4:48 2 3 mph 1014.2mb 68f
4:42 2 3 mph 1014.1mb 68f
4:36 2 3 mph 1014.1mb 68f
4:30 2 3 mph 1014.1mb 69f
4:24 2
mph
1014mb 69f
4:18 2 3 mph 1013.9mb 69f
4:12 3
mph
1013.8mb 69f
4:06 3 5 mph 1013.7mb 69f
4:00 3 5 mph 1013.7mb 69f
3:54 3 5 mph 1013.8mb 69f
3:48 2 3 mph 1013.7mb 69f
3:42 2
mph
1013.7mb 69f
3:36  -  2 mph 1013.7mb 69f
3:30  -  mph 1013.6mb 69f
3:24  -  1 mph 1013.6mb 69f
3:18 2 3 mph 1013.6mb 69f
3:12 2 3 mph 1013.7mb 69f
3:06 2 3 mph 1013.7mb 69f
3:00 5 6 mph 1013.7mb 69f
2:54 6 7 mph 1013.7mb 69f
2:48 8
mph
1013.7mb 69f
2:42 8 9 mph 1013.7mb 69f
2:36 8 9 mph 1013.7mb 69f
2:30 7 8 mph 1013.7mb 69f
2:24 7 8 mph 1013.7mb 69f
2:18 8
mph
1013.7mb 69f
2:12 7 8 mph 1013.7mb 69f
2:06 8
mph
1013.7mb 69f
2:00 7 8 mph 1013.7mb 69f
1:54 5 6 mph 1013.6mb 69f
1:48 5
mph
1013.6mb 68f
1:42 5 6 mph 1013.5mb 68f
1:36 6
mph
1013.5mb 69f
1:30 6 7 mph 1013.5mb 69f
1:24 6
mph
1013.5mb 69f
1:18 3 5 mph 1013.5mb 70f
1:12  -  2 mph 1013.5mb 71f
1:06  -  1 mph 1013.5mb 73f
1:00  -  2 mph 1013.5mb 73f
12:54 1 2 mph 1013.5mb 73f
12:48 2 3 mph 1013.5mb 74f
12:42 3
mph
1013.4mb 73f
12:36 3 6 mph 1013.4mb 73f
12:30 6
mph
1013.4mb 73f
12:24 5 6 mph 1013.3mb 74f
12:18 6 7 mph 1013.3mb 73f
12:12 6 7 mph 1013.2mb 73f
12:06 6
mph
1013.2mb 73f
12:00 3 6 mph 1013.1mb 73f
mié 09/28 11:54 3 5 mph 1013.1mb 74f
11:48 5 6 mph 1013.2mb -
11:42 6 7 mph 1013.2mb -
11:36 5 6 mph 1013.2mb -
11:30 3 5 mph 1013.2mb 74f
11:24 3 5 mph 1013.3mb 74f
11:18 3 5 mph 1013.3mb 74f
11:12 3 5 mph 1013.4mb 74f
11:06 3 5 mph 1013.4mb 74f
11:00 2 5 mph 1013.3mb 73f
10:54  -  1 mph 1013.1mb 73f
10:48 2 6 mph 1013.2mb -
10:42 5 6 mph 1013.2mb -
10:36  -  2 mph 1013.1mb -
10:30 1 2 mph 1013mb 73f
10:24 1 2 mph 1013mb 73f
10:18  -  1 mph 1013mb 73f
10:12  -  2 mph 1013mb 75f
10:06 3 5 mph 1013.1mb 76f
10:00 6 7 mph 1013.1mb 76f
9:54 6 7 mph 1013.1mb 75f
9:48 2 3 mph 1013.1mb 74f
9:42 2 3 mph 1012.9mb 74f
9:36 1 2 mph 1012.8mb 73f
9:30 1 2 mph 1012.9mb 73f
9:24  -  2 mph 1012.8mb 72f
9:18 3 6 mph 1012.8mb 73f
9:12 3
mph
1012.8mb 73f
9:06 2 3 mph 1012.8mb 76f
9:00 5 6 mph 1012.8mb 76f
8:54 6 7 mph 1012.7mb 76f
8:48 6 7 mph 1012.7mb 76f
8:42 7 9 mph 1012.6mb 77f
8:36 9 11 mph 1012.6mb 77f
8:30 13 15 mph 1012.6mb 77f
8:24 11 16 mph 1012.6mb 78f
8:18 10 13 mph 1012.6mb 78f
8:12 10 14 mph 1012.5mb 78f
8:06 7 10 mph 1012.4mb 77f
8:00 7 8 mph 1012.3mb 77f
7:54 3 7 mph 1012.2mb 77f
7:48  -  1 mph 1012.1mb 76f
7:36 3
mph
1012mb 78f
7:30 2 3 mph 1012mb 78f
7:24 5 6 mph 1012mb 78f
7:18 3 5 mph 1012mb 79f
7:12 5 6 mph 1011.8mb 79f
7:06 6 7 mph 1011.8mb 80f
7:00 6 9 mph 1011.8mb 80f
6:54 8 10 mph 1011.6mb 80f
6:48 9 13 mph 1011.6mb 80f
6:42 10 13 mph 1011.6mb 80f
6:36 10 13 mph 1011.6mb 81f
6:30 6 11 mph 1011.5mb 80f
6:24 3 5 mph 1011.5mb 80f
6:18 3 5 mph 1011.2mb 81f
6:12 2 5 mph 1011.2mb 85f
6:06 6 10 mph 1011.2mb 84f
6:00 8 10 mph 1011mb 85f
5:54 7 10 mph 1010.9mb 85f
5:48 9 10 mph 1010.7mb 85f
5:42 9 10 mph 1010.6mb 86f
5:36 8 10 mph 1010.5mb 87f
5:30 6 10 mph - 88f
5:24 3 5 mph - 89f
5:18 3 6 mph 1010.6mb 89f
5:12 6 8 mph 1010.5mb 87f
5:06 6 9 mph 1010.4mb 87f
5:00 7 10 mph 1010.4mb 87f
4:54 7 9 mph 1010.5mb 87f
4:48 8 10 mph 1010.6mb -
4:42 8 10 mph 1010.5mb -
4:36 7 9 mph 1010.5mb -
4:30 8 9 mph 1010.5mb 87f
4:24 8 10 mph 1010.6mb 89f
4:18 8 11 mph 1010.6mb 89f
4:12 8 11 mph 1010.6mb 89f
4:06 9 10 mph 1010.6mb 89f
4:00 8 10 mph 1010.7mb 89f
3:54 8 10 mph 1010.6mb 89f
3:48 8 10 mph 1010.7mb -
3:42 9 13 mph 1010.7mb -
3:36 8 11 mph 1010.8mb -
3:30 8 13 mph 1010.8mb 86f
3:24 9 11 mph 1010.9mb 85f
3:18 13 15 mph 1010.8mb 81f
3:12 10 13 mph 1010.7mb 81f
3:06 10
mph
1010.8mb 81f
3:00 10 11 mph 1010.9mb 82f
2:54 9 11 mph 1010.8mb 83f
2:48 10 11 mph 1010.9mb 84f
2:42 10 13 mph 1010.9mb 83f
2:36 10 13 mph 1011mb 82f
2:30 11 14 mph 1011mb 80f
2:24 11 14 mph 1011mb 79f
2:18 11 14 mph 1011.1mb 79f
2:12 14 16 mph 1011.2mb 77f
2:06 15 16 mph 1011.1mb 76f
2:00 15 16 mph 1011.2mb 76f
1:54 14 15 mph 1011.2mb 76f
1:48 15 16 mph 1011.3mb 76f
1:42 14 15 mph 1011.3mb 75f
1:36 15 16 mph 1011.4mb 75f
1:30 16
mph
1011.5mb 75f
1:24 15
mph
1011.5mb 75f
1:18 14 15 mph 1011.7mb 76f
1:12 13 14 mph 1011.6mb 74f
1:06 13
mph
1011.5mb 75f
1:00 13
mph
1011.5mb 78f
12:54 10 11 mph 1011.8mb 80f
12:48 9 10 mph 1011.9mb 79f
12:42 10 11 mph 1012mb 78f
12:36 11 13 mph 1011.9mb 78f
12:30 9 11 mph 1012mb 78f
12:24 10 11 mph 1012.1mb 78f
12:18 9 10 mph 1012.1mb 78f
12:12 10 11 mph 1012.3mb 78f
12:06 9 10 mph 1012.3mb 76f
12:00 8 9 mph 1012.3mb 76f
11:54 8
mph
1012.1mb 74f
11:48 6 8 mph 1012mb 77f
11:42 3 5 mph 1012.5mb 82f
11:36 3
mph
1012.7mb 81f
11:30 3 5 mph 1012.9mb 79f
11:24 5
mph
1012.9mb 75f
11:18 6
mph
1012.9mb 73f
11:12 6 7 mph 1012.8mb 72f
11:06 6 7 mph 1012.7mb 73f
11:00 7
mph
1012.9mb 73f
10:54 6 7 mph 1012.9mb 72f
10:48 7 8 mph 1012.9mb 72f
10:42 8
mph
1012.9mb 72f
10:36 7 8 mph 1012.8mb 72f
10:30 7
mph
1013mb 72f
10:24 8 9 mph 1012.9mb 72f
10:18 7
mph
1012.9mb 72f
10:12 6 7 mph 1013mb 73f
10:06 6 7 mph 1012.9mb 72f
10:00 6 7 mph 1012.8mb 71f
9:54 7
mph
1012.6mb 71f
9:48 6
mph
1012.6mb 72f
9:42 6
mph
1012.8mb 73f
9:36 5
mph
1012.8mb 73f
9:30 5
mph
1012.8mb 73f
9:24 5
mph
1012.7mb 72f
9:18 5
mph
1012.7mb 72f
9:12 3 5 mph 1012.7mb 72f
9:06 3 5 mph 1012.6mb 72f
9:00 1 2 mph 1012.6mb 73f
8:54  -  1 mph 1012.7mb 73f
8:48 1 2 mph 1012.6mb 72f
8:42  -  1 mph 1012.7mb 74f
8:36  -  mph 1012.7mb 74f
8:30  -  1 mph 1012.7mb 74f
8:24 1 2 mph 1012.7mb 74f
8:18 2 3 mph 1012.7mb 74f
8:12 2 3 mph 1012.6mb 73f
8:06 3 5 mph 1012.5mb 73f
8:00 2 5 mph 1012.5mb 73f
7:54 2 3 mph 1012.5mb 73f
7:48 2
mph
1012.5mb 73f
7:42  -  1 mph 1012.5mb 74f
7:36 2
mph
1012.4mb 74f
7:24  -  1 mph 1012.4mb 71f
7:18  -  1 mph 1012.3mb 71f
7:12  -  2 mph 1012.2mb 71f
7:06 1 2 mph 1012.1mb 70f
7:00  -  1 mph 1012mb 69f
6:54  -  1 mph 1011.9mb 69f
6:48 2
mph
1011.8mb 69f
6:42 2
mph
1011.8mb 69f
6:36 1 2 mph 1011.8mb 70f
6:30  -  2 mph 1011.8mb 70f
6:24 1 2 mph 1011.8mb 70f
6:18 2 3 mph 1011.7mb 71f
6:12 3 5 mph 1011.6mb 70f
6:06 3 5 mph 1011.6mb 70f
6:00 3 5 mph 1011.5mb 70f
5:54 3
mph
1011.5mb 70f
5:48 3 5 mph 1011.6mb 71f
5:42 3 5 mph 1011.5mb 71f
5:36 5 6 mph 1011.5mb 71f
5:30 5 6 mph 1011.5mb 71f
5:24 7 8 mph 1011.5mb 71f
5:18 6 7 mph 1011.5mb 71f
5:12 5 6 mph 1011.6mb 71f
5:06 3 5 mph 1011.6mb 71f
5:00 2 3 mph 1011.6mb 71f
4:48 3 6 mph 1011.4mb 71f
4:42 5 7 mph 1011.4mb 71f
4:36 6 7 mph 1011.5mb 71f
4:30 7 9 mph 1011.2mb 71f
4:24 8 9 mph 1011.2mb 71f
4:18 6 8 mph 1011.2mb 71f
4:12 6 7 mph 1011mb 71f
4:06 7 8 mph 1011mb 71f
4:00 6 8 mph 1011mb 71f
3:54 6 7 mph 1011mb 71f
3:48 5 6 mph 1011.1mb 71f
3:42 5 7 mph 1011.2mb 71f
3:36 6 8 mph 1011.3mb 71f
3:30 5 6 mph 1011.4mb 71f
3:24 6 7 mph 1011.5mb 71f
3:18 5 6 mph 1011.5mb 71f
3:12 5 6 mph 1011.4mb 71f
3:06 5 6 mph 1011.4mb 70f
3:00 6
mph
1011.4mb 71f
2:54 6
mph
1011.5mb 71f
2:48 5 6 mph 1011.5mb 70f
2:42 5
mph
1011.5mb 69f
2:36 5
mph
1011.4mb 69f
2:30 5 6 mph 1011.3mb 69f
2:24 6
mph
1011.4mb 70f
2:18 6
mph
1011.5mb 70f
2:06 5 6 mph 1011.6mb 71f
2:00 5
mph
1011.6mb 70f
1:54 6
mph
1011.6mb 70f
1:48 6 7 mph 1011.5mb 70f
1:42 7
mph
1011.5mb 70f
1:36 7 8 mph 1011.5mb 70f
1:30 7 8 mph 1011.5mb 70f
1:24 6 8 mph 1011.5mb 70f
1:18 5 6 mph 1011.5mb 70f
1:12 5
mph
1011.5mb 70f
1:06 5 6 mph 1011.4mb 70f
1:00 6 7 mph 1011.3mb 70f
12:54 7 8 mph 1011.2mb 70f
12:48 9 10 mph 1011.2mb 70f
12:42 7 8 mph 1011.2mb 71f
12:36 7 8 mph 1011.2mb 71f
12:30 7 8 mph 1011.2mb 71f
12:24 6 8 mph 1011.2mb 71f
12:18 5 6 mph 1011.1mb 71f
12:12 6 7 mph 1011.1mb 71f
12:06 6 7 mph 1011.1mb 71f
12:00 3 5 mph 1011.2mb 71f
mar 09/27 11:54 2 5 mph 1011.1mb 71f
11:48 3 5 mph 1011mb 71f
11:42 5 7 mph 1011.2mb 71f
11:36 6
mph
1011.1mb 71f
11:30 6
mph
1011.3mb 71f
11:24 5 7 mph 1011.2mb 72f
11:18 6 8 mph 1011.3mb 71f
11:12 5 6 mph 1011.2mb 72f
11:06 6 7 mph 1011.2mb 72f
11:00 6 9 mph 1011.1mb 72f
10:54 6 9 mph 1011.1mb 72f
10:48 5 8 mph 1011.1mb -
10:42 6 8 mph 1011mb -
10:36 7 9 mph 1011.2mb -
10:30 5 7 mph 1011.1mb 74f
10:24 3 5 mph 1011.1mb 74f
10:18 3 5 mph 1011.2mb 76f
10:12 5 6 mph 1011.2mb 76f
10:06 3 5 mph 1011.2mb 76f
10:00 5 6 mph 1011.2mb 75f
9:54 3 5 mph 1011.3mb 75f
9:48 3 5 mph 1011.3mb 75f
9:42 3 5 mph 1011.2mb 75f
9:36 5 7 mph 1011.2mb 75f
9:30 6 7 mph 1011.2mb 73f
9:24 5 6 mph 1011.1mb 72f
9:18 3
mph
1010.9mb 72f
9:12 5 6 mph 1010.9mb 72f
9:06  -  1 mph 1010.8mb 72f
9:00  -  1 mph 1010.7mb 72f
8:54 3 6 mph 1010.8mb 72f
8:48 1 7 mph 1010.7mb 73f
8:42 2 5 mph 1010.5mb 73f
8:36 3 5 mph 1010.4mb 77f
8:30 5 6 mph 1010.5mb 79f
8:24 5 6 mph 1010.5mb 79f
8:18 6 7 mph 1010.4mb 79f
8:12 6 9 mph 1010.2mb 79f
8:06 8 10 mph 1010.4mb 79f
8:00 8 11 mph 1010.3mb 79f
7:54 8 9 mph 1010.2mb 80f
7:48 8 9 mph 1010.3mb 79f
7:42 8 10 mph 1010.4mb 78f
7:36 9 10 mph 1010.4mb 78f
7:30 8 9 mph 1010.4mb 78f
7:24 10 13 mph 1010.2mb 78f
7:18 11 14 mph 1010.2mb 78f
7:12 9 11 mph 1010.2mb 78f
7:06 7 10 mph 1010.2mb 77f
7:00 5 7 mph 1010mb 75f
6:54 2 5 mph 1009.9mb 74f
6:48  -  2 mph 1009.9mb 74f
6:42  -  2 mph 1009.9mb 74f
6:36 3 5 mph 1009.8mb 74f
6:30 3 5 mph 1009.7mb 75f
6:24 5 6 mph 1009.6mb 75f
6:18 5 6 mph - 76f
6:12 6
mph
- 75f
6:06 5 6 mph - 76f
6:00 7 9 mph 1009.6mb 75f
5:54 7 9 mph 1009.4mb 75f
5:48 7 8 mph 1009.4mb 76f
5:42 3 6 mph 1009.2mb 77f
5:36 2 3 mph 1009.2mb 78f
5:30 3 6 mph 1009.2mb 76f
5:24 7 9 mph 1009.2mb 76f
5:18 6 8 mph 1009.1mb 77f
5:12 6 8 mph 1009.2mb 77f
5:06 8 11 mph 1009mb 78f
5:00 11 14 mph 1008.8mb 79f
4:54 14 16 mph 1008.7mb 79f
4:48 14 16 mph 1008.5mb -
4:42 13 15 mph 1008.5mb -
4:36 13 15 mph 1008.5mb -
4:30 13 14 mph 1008.6mb 81f
4:24 14 15 mph 1008.6mb 81f
4:18 11 13 mph 1008.6mb 81f
4:12 13 14 mph 1008.7mb 81f
4:06 13 14 mph 1008.7mb 81f
4:00 13 14 mph 1008.8mb 80f
3:54 13 14 mph 1008.8mb 80f
3:48 11 13 mph 1008.9mb 79f
3:42 10
mph
1008.8mb 77f
3:36 9 10 mph 1008.8mb 78f
3:30 9
mph
1008.8mb 78f
3:24 8
mph
1008.9mb 78f
3:18 8 9 mph 1008.9mb 77f
3:12 8
mph
1008.9mb 78f
3:06 7 8 mph 1008.9mb 79f
3:00 7 8 mph 1008.9mb 78f
2:54 7 8 mph 1008.9mb 78f
2:48 6 7 mph - 78f
2:42 6 7 mph - 80f
2:36 6
mph
- 80f
2:30 6
mph
1008.8mb 80f
2:24 6 7 mph 1008.9mb 81f
2:18 6
mph
1008.9mb 80f
2:12 5 6 mph 1009mb 80f
2:06 5 6 mph 1009.1mb 79f
2:00 6
mph
1009.1mb 79f
1:54 6
mph
1009.2mb 80f
1:48 6 7 mph 1009.3mb 80f
1:42 6 7 mph 1009.5mb 80f
1:36 6 7 mph 1009.5mb 80f
1:30 7 8 mph 1009.5mb 80f
1:24 7 9 mph 1009.5mb 80f
1:18 7 8 mph 1009.5mb 79f
1:12 7 8 mph 1009.6mb 79f
1:06 7 8 mph 1009.5mb 80f
1:00 7 8 mph 1009.6mb 81f
12:54 7 8 mph 1009.7mb 81f
12:48 7 8 mph 1009.8mb 81f
12:42 8 9 mph 1009.9mb 80f
12:36 8
mph
1009.9mb 80f
12:30 8 9 mph 1009.9mb 79f
12:24 8 9 mph 1009.9mb 80f
12:18 6 7 mph 1010.3mb 81f
12:12 6
mph
1010.4mb 79f
12:06 6 7 mph 1010.2mb 76f
12:00 6 7 mph 1010.4mb 76f
11:54 6
mph
1010.5mb 77f
11:48 6
mph
1010.6mb 77f
11:42 6 7 mph 1010.7mb 75f
11:36 7 8 mph 1010.5mb 75f
11:30 8 10 mph 1010.5mb 77f
11:24 10 13 mph 1010.5mb 76f
11:18 10 11 mph 1010.3mb 76f
11:12 8 11 mph 1010.2mb 77f
11:06 6 7 mph 1010.2mb 78f
11:00 6 8 mph 1010.3mb 79f
10:54 5 6 mph 1010.3mb 79f
10:48 6 7 mph 1010.3mb 80f
10:42 3
mph
1010.6mb 83f
10:36 5 6 mph 1010.4mb 80f
10:30 5 6 mph 1010.2mb 80f
10:24 2 5 mph 1010.3mb 83f
10:18 1 3 mph 1010.2mb 82f
10:12 1 2 mph 1010.1mb 84f
10:06 1 2 mph 1010.1mb 87f
10:00  -  1 mph 1010.4mb 88f
9:54 1 2 mph 1010.4mb 87f
9:48 2
mph
1010.4mb 86f
9:42 3 5 mph 1010.3mb 85f
9:36 3 5 mph 1010.3mb 84f
9:30 2 3 mph 1010.4mb 82f
9:24 2
mph
1010.3mb 83f
9:18 1 2 mph 1010.3mb 85f
9:12  -  2 mph 1010.4mb 85f
9:06 2
mph
1010.4mb 83f
9:00 2 3 mph 1010.2mb 80f
8:54 3 5 mph 1009.9mb 81f
8:48 5 6 mph 1010.1mb 80f
8:42 6 7 mph 1009.9mb 80f
8:36 5 6 mph 1010mb 79f
8:30 3 5 mph 1009.9mb 78f
8:18 6 7 mph 1010mb 78f
8:12 6 7 mph 1009.9mb 77f
8:06 6
mph
1010.2mb 77f
8:00 5
mph
1010.3mb 76f
7:54 5
mph
1010.3mb 75f
7:48 5
mph
1010.1mb 74f
7:42 5
mph
1010mb 73f
7:36 5
mph
1009.9mb 73f
7:30 3
mph
1009.9mb 73f
7:24 5 6 mph 1009.9mb 73f
7:18 6
mph
1009.9mb 73f
7:12 6 7 mph 1010mb 72f
7:06 6 7 mph 1009.9mb 71f
7:00 5 6 mph 1009.9mb 71f
6:54 5
mph
1009.9mb 71f
6:48 5 6 mph 1009.8mb 71f
6:42 6
mph
1009.7mb 70f
6:36 6 7 mph 1009.6mb 71f
6:30 8 9 mph 1009.6mb 72f
6:24 8 9 mph 1009.6mb 72f
6:18 8 9 mph 1009.6mb 71f
6:12 6 8 mph 1009.5mb 71f
6:06 6
mph
1009.6mb 72f
6:00 6 7 mph 1009.6mb 72f
5:54 6 7 mph 1009.5mb 72f
5:48 6
mph
1009.4mb 72f
5:42 5
mph
1009.4mb 71f
5:36 3 5 mph 1009.4mb 71f
5:30 2 3 mph 1009.4mb 73f
5:24 2 3 mph 1009.4mb 74f
5:18 2 3 mph 1009.4mb 73f
5:12 2 3 mph 1009.5mb 73f
5:06 1 3 mph 1009.6mb 73f
5:00 1 3 mph 1009.6mb 74f
4:54 3 5 mph 1009.6mb 74f
4:48 2 3 mph 1009.6mb 74f
4:42 2 3 mph 1009.6mb 73f
4:36 1 2 mph 1009.4mb 73f
4:30 3 5 mph 1009.5mb 73f
4:24 3 5 mph 1009.5mb 71f
4:18 5
mph
1009.4mb 71f
4:12 5
mph
1009.5mb 71f
4:06 3 5 mph 1009.5mb 71f
4:00 2
mph
1009.4mb 71f
3:54 1 2 mph 1009.4mb 70f
3:48 2 5 mph 1009.4mb 70f
3:42 5 7 mph 1009.5mb 70f
3:36 2 7 mph 1009.5mb 73f
3:30 2 3 mph 1009.6mb 75f
3:24 2 3 mph 1009.7mb 75f
3:18 2 3 mph 1009.6mb 76f
3:12 5 8 mph 1009.6mb 75f
3:06 6 8 mph 1009.6mb 75f
3:00 5 6 mph 1009.6mb 76f
2:54 5 6 mph 1009.6mb 76f
2:48 6 7 mph 1009.6mb 76f
2:42 6 7 mph 1009.7mb 77f
2:36 6
mph
1009.7mb 76f
2:30 5 6 mph 1009.7mb 76f
2:24 2 3 mph 1009.7mb 76f
2:18  -  1 mph 1009.6mb 76f
2:12 1 2 mph 1009.6mb 77f
2:06 2
mph
1009.6mb 77f
2:00 3
mph
1009.7mb 77f
1:54 5 6 mph 1009.7mb 77f
1:48 7
mph
1009.7mb 77f
1:42 8
mph
1009.7mb 77f
1:36 6 8 mph 1009.8mb 76f
1:30 6 7 mph 1009.9mb 76f
1:18 6 7 mph 1009.9mb 77f
1:12 3 6 mph 1010.1mb 77f
1:06 2 3 mph 1010.1mb 78f
1:00 2 5 mph 1010.2mb 79f
12:54 3 5 mph 1010.2mb 79f
12:48 5
mph
1010.3mb 80f
12:42 3 6 mph 1010.3mb 80f
12:36 2 5 mph 1010.3mb 80f
12:30 3 5 mph 1010.3mb 79f
12:24 2 3 mph 1010.3mb 80f
12:18 2 3 mph 1010.4mb 80f
12:12 1 3 mph 1010.4mb 80f
12:06 2 3 mph 1010.5mb 80f
12:00 2 3 mph 1010.4mb 80f
lun 09/26 11:54 3 5 mph 1010.4mb 80f
11:48 6
mph
1010.4mb -
11:42 6 7 mph 1010.4mb -
11:36 6 7 mph 1010.4mb -
11:30 5 6 mph 1010.4mb 82f
11:24 3 6 mph 1010.5mb 82f
11:18 3 6 mph 1010.5mb 82f
11:12 3 5 mph 1010.5mb 82f
11:06 3 5 mph 1010.5mb 82f
11:00 2 5 mph 1010.5mb 82f
10:54 2 6 mph 1010.5mb 83f
10:48 5 8 mph 1010.7mb -
10:42 5 8 mph 1010.6mb -
10:36 3 7 mph 1010.5mb -
10:30 1 2 mph 1010.4mb 83f
10:24 3 5 mph 1010.5mb 84f
10:18 5 6 mph 1010.4mb 83f
10:12 5 6 mph 1010.5mb 83f
10:06 6
mph
1010.6mb 83f
10:00 7
mph
1010.6mb 82f
9:54 7 8 mph 1010.7mb 81f
9:48 8 9 mph 1010.8mb 82f
9:42 7 8 mph 1010.9mb 82f
9:36 6 7 mph 1011mb 80f
9:30 6 7 mph 1010.9mb 79f
9:24 7 8 mph 1010.8mb 77f
9:18 6 9 mph 1010.6mb 78f
9:12 3 5 mph 1010.7mb 84f
9:06 5
mph
1011mb 85f
9:00 5
mph
1010.9mb 81f
8:54 2
mph
1010.7mb 80f
8:48 1 2 mph 1010.6mb 80f
8:42 1 2 mph 1010.6mb 85f
8:36 1 3 mph 1010.6mb 86f
8:30 3 5 mph 1010.5mb 85f
8:24 2 5 mph 1010.5mb 88f
8:18 3
mph
1010.4mb 89f
8:12 3 5 mph 1010.4mb 89f
8:06 5 6 mph 1010.4mb 88f
8:00 6 7 mph 1010.4mb 87f
7:54 6 9 mph 1010.4mb 89f
7:48 8 14 mph 1010.4mb 89f
7:42 6 10 mph 1010.2mb 88f
7:36 5 8 mph 1010mb 89f
7:30 6 7 mph 1009.9mb 89f
7:24 6 9 mph 1009.8mb 90f
7:18 8 13 mph 1009.7mb 91f
7:12 9 14 mph 1009.6mb 91f
7:06 8 13 mph 1009.5mb 91f
7:00 9 11 mph 1009.6mb 91f
6:54 8 11 mph 1009.6mb 91f
6:48 8 13 mph 1009.6mb 91f